sensor_id;sensor_type;location;lat;lon;timestamp;P1;durP1;ratioP1;P2;durP2;ratioP2
9072;SDS011;4572;41.642;25.370;2023-01-16T00:01:44;11.33;;;8.73;;
9072;SDS011;4572;41.642;25.370;2023-01-16T00:04:11;11.10;;;8.50;;
9072;SDS011;4572;41.642;25.370;2023-01-16T00:06:36;13.50;;;9.27;;
9072;SDS011;4572;41.642;25.370;2023-01-16T00:09:05;14.77;;;9.40;;
9072;SDS011;4572;41.642;25.370;2023-01-16T00:11:30;12.90;;;8.80;;
9072;SDS011;4572;41.642;25.370;2023-01-16T00:13:56;12.17;;;9.13;;
9072;SDS011;4572;41.642;25.370;2023-01-16T00:16:21;13.80;;;9.27;;
9072;SDS011;4572;41.642;25.370;2023-01-16T00:18:47;13.37;;;8.83;;
9072;SDS011;4572;41.642;25.370;2023-01-16T00:21:12;14.93;;;8.93;;
9072;SDS011;4572;41.642;25.370;2023-01-16T00:23:38;15.50;;;9.63;;
9072;SDS011;4572;41.642;25.370;2023-01-16T00:26:07;13.30;;;8.40;;
9072;SDS011;4572;41.642;25.370;2023-01-16T00:28:34;12.50;;;8.80;;
9072;SDS011;4572;41.642;25.370;2023-01-16T00:31:03;13.73;;;8.57;;
9072;SDS011;4572;41.642;25.370;2023-01-16T00:33:29;12.53;;;8.37;;
9072;SDS011;4572;41.642;25.370;2023-01-16T00:35:55;10.83;;;8.23;;
9072;SDS011;4572;41.642;25.370;2023-01-16T00:38:21;12.57;;;8.90;;
9072;SDS011;4572;41.642;25.370;2023-01-16T00:40:46;10.97;;;7.93;;
9072;SDS011;4572;41.642;25.370;2023-01-16T00:43:12;11.37;;;8.33;;
9072;SDS011;4572;41.642;25.370;2023-01-16T00:45:38;12.07;;;8.27;;
9072;SDS011;4572;41.642;25.370;2023-01-16T00:48:05;11.63;;;8.20;;
9072;SDS011;4572;41.642;25.370;2023-01-16T00:50:31;13.20;;;8.70;;
9072;SDS011;4572;41.642;25.370;2023-01-16T00:52:56;9.90;;;7.77;;
9072;SDS011;4572;41.642;25.370;2023-01-16T00:55:22;9.70;;;7.33;;
9072;SDS011;4572;41.642;25.370;2023-01-16T00:57:47;10.27;;;7.57;;
9072;SDS011;4572;41.642;25.370;2023-01-16T01:00:13;10.57;;;7.73;;
9072;SDS011;4572;41.642;25.370;2023-01-16T01:02:39;9.60;;;7.43;;
9072;SDS011;4572;41.642;25.370;2023-01-16T01:05:04;10.47;;;7.53;;
9072;SDS011;4572;41.642;25.370;2023-01-16T01:07:31;8.97;;;7.03;;
9072;SDS011;4572;41.642;25.370;2023-01-16T01:09:57;10.60;;;7.70;;
9072;SDS011;4572;41.642;25.370;2023-01-16T01:12:22;9.43;;;7.17;;
9072;SDS011;4572;41.642;25.370;2023-01-16T01:14:48;11.60;;;8.20;;
9072;SDS011;4572;41.642;25.370;2023-01-16T01:17:13;11.93;;;7.93;;
9072;SDS011;4572;41.642;25.370;2023-01-16T01:19:39;9.07;;;7.37;;
9072;SDS011;4572;41.642;25.370;2023-01-16T01:22:05;10.17;;;7.67;;
9072;SDS011;4572;41.642;25.370;2023-01-16T01:24:30;12.23;;;8.20;;
9072;SDS011;4572;41.642;25.370;2023-01-16T01:26:56;11.23;;;8.37;;
9072;SDS011;4572;41.642;25.370;2023-01-16T01:29:21;13.57;;;9.53;;
9072;SDS011;4572;41.642;25.370;2023-01-16T01:31:47;14.50;;;9.33;;
9072;SDS011;4572;41.642;25.370;2023-01-16T01:34:12;21.57;;;13.40;;
9072;SDS011;4572;41.642;25.370;2023-01-16T01:36:38;14.60;;;10.00;;
9072;SDS011;4572;41.642;25.370;2023-01-16T01:39:03;12.80;;;8.87;;
9072;SDS011;4572;41.642;25.370;2023-01-16T01:41:29;12.67;;;8.80;;
9072;SDS011;4572;41.642;25.370;2023-01-16T01:43:55;12.40;;;8.87;;
9072;SDS011;4572;41.642;25.370;2023-01-16T01:48:53;13.07;;;8.87;;
9072;SDS011;4572;41.642;25.370;2023-01-16T01:51:30;11.57;;;8.37;;
9072;SDS011;4572;41.642;25.370;2023-01-16T01:54:16;12.43;;;8.37;;
9072;SDS011;4572;41.642;25.370;2023-01-16T01:56:46;12.27;;;8.50;;
9072;SDS011;4572;41.642;25.370;2023-01-16T01:59:17;11.47;;;7.73;;
9072;SDS011;4572;41.642;25.370;2023-01-16T02:01:47;12.63;;;8.40;;
9072;SDS011;4572;41.642;25.370;2023-01-16T02:04:14;13.87;;;8.70;;
9072;SDS011;4572;41.642;25.370;2023-01-16T02:06:42;12.70;;;8.70;;
9072;SDS011;4572;41.642;25.370;2023-01-16T02:09:10;12.77;;;8.63;;
9072;SDS011;4572;41.642;25.370;2023-01-16T02:11:38;15.37;;;9.40;;
9072;SDS011;4572;41.642;25.370;2023-01-16T02:14:09;14.53;;;10.00;;
9072;SDS011;4572;41.642;25.370;2023-01-16T02:16:37;14.00;;;9.27;;
9072;SDS011;4572;41.642;25.370;2023-01-16T02:27:40;16.67;;;10.03;;
9072;SDS011;4572;41.642;25.370;2023-01-16T02:35:31;17.80;;;10.93;;
9072;SDS011;4572;41.642;25.370;2023-01-16T02:38:10;19.93;;;10.43;;
9072;SDS011;4572;41.642;25.370;2023-01-16T02:40:51;17.50;;;10.23;;
9072;SDS011;4572;41.642;25.370;2023-01-16T02:44:05;19.57;;;11.00;;
9072;SDS011;4572;41.642;25.370;2023-01-16T02:49:10;20.00;;;10.97;;
9072;SDS011;4572;41.642;25.370;2023-01-16T02:51:45;18.27;;;11.07;;
9072;SDS011;4572;41.642;25.370;2023-01-16T02:54:20;19.20;;;11.00;;
9072;SDS011;4572;41.642;25.370;2023-01-16T02:56:50;21.37;;;11.60;;
9072;SDS011;4572;41.642;25.370;2023-01-16T02:59:21;28.50;;;13.70;;
9072;SDS011;4572;41.642;25.370;2023-01-16T03:01:49;22.87;;;12.40;;
9072;SDS011;4572;41.642;25.370;2023-01-16T03:23:53;23.37;;;12.80;;
9072;SDS011;4572;41.642;25.370;2023-01-16T03:28:55;24.83;;;12.40;;
9072;SDS011;4572;41.642;25.370;2023-01-16T03:31:29;25.00;;;12.77;;
9072;SDS011;4572;41.642;25.370;2023-01-16T03:39:21;25.43;;;13.27;;
9072;SDS011;4572;41.642;25.370;2023-01-16T03:41:48;21.57;;;12.33;;
9072;SDS011;4572;41.642;25.370;2023-01-16T03:47:14;20.67;;;11.83;;
9072;SDS011;4572;41.642;25.370;2023-01-16T03:49:46;26.60;;;13.10;;
9072;SDS011;4572;41.642;25.370;2023-01-16T03:52:14;26.77;;;12.93;;
9072;SDS011;4572;41.642;25.370;2023-01-16T03:57:33;25.63;;;12.57;;
9072;SDS011;4572;41.642;25.370;2023-01-16T04:00:03;21.80;;;12.13;;
9072;SDS011;4572;41.642;25.370;2023-01-16T04:02:34;27.53;;;11.67;;
9072;SDS011;4572;41.642;25.370;2023-01-16T04:05:08;18.43;;;10.97;;
9072;SDS011;4572;41.642;25.370;2023-01-16T04:07:39;21.53;;;10.60;;
9072;SDS011;4572;41.642;25.370;2023-01-16T04:10:19;25.20;;;11.80;;
9072;SDS011;4572;41.642;25.370;2023-01-16T04:12:49;25.67;;;11.90;;
9072;SDS011;4572;41.642;25.370;2023-01-16T04:15:17;20.50;;;11.43;;
9072;SDS011;4572;41.642;25.370;2023-01-16T04:17:43;19.50;;;11.23;;
9072;SDS011;4572;41.642;25.370;2023-01-16T04:20:09;20.60;;;10.63;;
9072;SDS011;4572;41.642;25.370;2023-01-16T04:22:35;21.57;;;11.50;;
9072;SDS011;4572;41.642;25.370;2023-01-16T04:25:01;21.37;;;11.60;;
9072;SDS011;4572;41.642;25.370;2023-01-16T04:27:29;25.50;;;12.00;;
9072;SDS011;4572;41.642;25.370;2023-01-16T04:29:54;22.30;;;11.33;;
9072;SDS011;4572;41.642;25.370;2023-01-16T04:32:20;21.40;;;11.73;;
9072;SDS011;4572;41.642;25.370;2023-01-16T04:34:46;24.50;;;11.53;;
9072;SDS011;4572;41.642;25.370;2023-01-16T04:37:12;24.37;;;11.70;;
9072;SDS011;4572;41.642;25.370;2023-01-16T04:39:38;21.33;;;11.90;;
9072;SDS011;4572;41.642;25.370;2023-01-16T04:42:05;23.40;;;11.57;;
9072;SDS011;4572;41.642;25.370;2023-01-16T04:44:31;23.23;;;11.80;;
9072;SDS011;4572;41.642;25.370;2023-01-16T04:46:56;19.23;;;11.80;;
9072;SDS011;4572;41.642;25.370;2023-01-16T04:49:22;22.60;;;12.03;;
9072;SDS011;4572;41.642;25.370;2023-01-16T04:51:47;34.00;;;16.70;;
9072;SDS011;4572;41.642;25.370;2023-01-16T04:54:13;21.80;;;12.13;;
9072;SDS011;4572;41.642;25.370;2023-01-16T04:56:40;24.10;;;11.90;;
9072;SDS011;4572;41.642;25.370;2023-01-16T04:59:07;22.53;;;11.87;;
9072;SDS011;4572;41.642;25.370;2023-01-16T05:01:33;28.07;;;13.93;;
9072;SDS011;4572;41.642;25.370;2023-01-16T05:04:06;24.43;;;13.63;;
9072;SDS011;4572;41.642;25.370;2023-01-16T05:06:32;21.90;;;12.87;;
9072;SDS011;4572;41.642;25.370;2023-01-16T05:08:59;23.37;;;12.40;;
9072;SDS011;4572;41.642;25.370;2023-01-16T05:11:24;18.80;;;11.53;;
9072;SDS011;4572;41.642;25.370;2023-01-16T05:13:50;20.57;;;11.50;;
9072;SDS011;4572;41.642;25.370;2023-01-16T05:16:15;19.60;;;10.90;;
9072;SDS011;4572;41.642;25.370;2023-01-16T05:18:41;19.80;;;11.07;;
9072;SDS011;4572;41.642;25.370;2023-01-16T05:21:06;19.73;;;11.03;;
9072;SDS011;4572;41.642;25.370;2023-01-16T05:23:32;21.10;;;11.00;;
9072;SDS011;4572;41.642;25.370;2023-01-16T05:26:02;19.00;;;10.20;;
9072;SDS011;4572;41.642;25.370;2023-01-16T05:28:29;20.47;;;11.73;;
9072;SDS011;4572;41.642;25.370;2023-01-16T05:30:54;18.33;;;10.40;;
9072;SDS011;4572;41.642;25.370;2023-01-16T05:33:20;16.07;;;9.90;;
9072;SDS011;4572;41.642;25.370;2023-01-16T05:35:46;20.87;;;11.97;;
9072;SDS011;4572;41.642;25.370;2023-01-16T05:38:12;20.00;;;12.10;;
9072;SDS011;4572;41.642;25.370;2023-01-16T05:40:38;20.30;;;11.90;;
9072;SDS011;4572;41.642;25.370;2023-01-16T05:43:05;22.00;;;12.63;;
9072;SDS011;4572;41.642;25.370;2023-01-16T05:45:31;24.67;;;13.40;;
9072;SDS011;4572;41.642;25.370;2023-01-16T05:47:57;19.50;;;12.70;;
9072;SDS011;4572;41.642;25.370;2023-01-16T05:50:22;22.57;;;12.83;;
9072;SDS011;4572;41.642;25.370;2023-01-16T05:52:48;23.33;;;14.37;;
9072;SDS011;4572;41.642;25.370;2023-01-16T05:55:13;22.93;;;13.67;;
9072;SDS011;4572;41.642;25.370;2023-01-16T05:57:39;21.17;;;13.40;;
9072;SDS011;4572;41.642;25.370;2023-01-16T06:00:05;21.50;;;13.57;;
9072;SDS011;4572;41.642;25.370;2023-01-16T06:02:31;24.10;;;13.57;;
9072;SDS011;4572;41.642;25.370;2023-01-16T06:04:57;20.80;;;12.43;;
9072;SDS011;4572;41.642;25.370;2023-01-16T06:07:22;18.60;;;11.83;;
9072;SDS011;4572;41.642;25.370;2023-01-16T06:09:47;20.87;;;12.70;;
9072;SDS011;4572;41.642;25.370;2023-01-16T06:12:17;18.63;;;11.13;;
9072;SDS011;4572;41.642;25.370;2023-01-16T06:14:43;19.63;;;12.63;;
9072;SDS011;4572;41.642;25.370;2023-01-16T06:17:09;19.53;;;11.93;;
9072;SDS011;4572;41.642;25.370;2023-01-16T06:19:39;22.70;;;13.20;;
9072;SDS011;4572;41.642;25.370;2023-01-16T06:22:05;23.07;;;14.77;;
9072;SDS011;4572;41.642;25.370;2023-01-16T06:24:31;18.87;;;11.63;;
9072;SDS011;4572;41.642;25.370;2023-01-16T06:26:57;16.93;;;11.53;;
9072;SDS011;4572;41.642;25.370;2023-01-16T06:29:22;17.43;;;9.67;;
9072;SDS011;4572;41.642;25.370;2023-01-16T06:31:47;13.97;;;9.07;;
9072;SDS011;4572;41.642;25.370;2023-01-16T06:34:13;12.20;;;8.43;;
9072;SDS011;4572;41.642;25.370;2023-01-16T06:36:38;14.70;;;9.57;;
9072;SDS011;4572;41.642;25.370;2023-01-16T06:39:06;10.40;;;6.80;;
9072;SDS011;4572;41.642;25.370;2023-01-16T06:41:32;11.63;;;7.93;;
9072;SDS011;4572;41.642;25.370;2023-01-16T06:43:58;12.93;;;8.30;;
9072;SDS011;4572;41.642;25.370;2023-01-16T06:46:23;14.37;;;8.10;;
9072;SDS011;4572;41.642;25.370;2023-01-16T06:48:49;13.57;;;7.83;;
9072;SDS011;4572;41.642;25.370;2023-01-16T06:51:14;16.37;;;9.63;;
9072;SDS011;4572;41.642;25.370;2023-01-16T06:53:39;15.00;;;8.80;;
9072;SDS011;4572;41.642;25.370;2023-01-16T06:56:05;10.73;;;7.87;;
9072;SDS011;4572;41.642;25.370;2023-01-16T06:58:31;13.73;;;7.83;;
9072;SDS011;4572;41.642;25.370;2023-01-16T07:00:56;16.53;;;10.13;;
9072;SDS011;4572;41.642;25.370;2023-01-16T07:03:22;13.63;;;9.77;;
9072;SDS011;4572;41.642;25.370;2023-01-16T07:05:47;14.50;;;9.20;;
9072;SDS011;4572;41.642;25.370;2023-01-16T07:08:13;11.60;;;7.73;;
9072;SDS011;4572;41.642;25.370;2023-01-16T07:10:39;13.30;;;9.23;;
9072;SDS011;4572;41.642;25.370;2023-01-16T07:13:05;12.80;;;8.47;;
9072;SDS011;4572;41.642;25.370;2023-01-16T07:15:30;11.23;;;6.63;;
9072;SDS011;4572;41.642;25.370;2023-01-16T07:18:15;11.67;;;6.77;;
9072;SDS011;4572;41.642;25.370;2023-01-16T07:21:04;11.83;;;7.63;;
9072;SDS011;4572;41.642;25.370;2023-01-16T07:23:53;15.40;;;8.70;;
9072;SDS011;4572;41.642;25.370;2023-01-16T07:26:22;10.50;;;6.67;;
9072;SDS011;4572;41.642;25.370;2023-01-16T07:28:48;17.10;;;8.60;;
9072;SDS011;4572;41.642;25.370;2023-01-16T07:31:14;15.63;;;9.37;;
9072;SDS011;4572;41.642;25.370;2023-01-16T07:33:40;13.30;;;8.57;;
9072;SDS011;4572;41.642;25.370;2023-01-16T07:36:05;18.73;;;10.03;;
9072;SDS011;4572;41.642;25.370;2023-01-16T07:38:31;32.40;;;14.90;;
9072;SDS011;4572;41.642;25.370;2023-01-16T07:40:56;22.27;;;11.57;;
9072;SDS011;4572;41.642;25.370;2023-01-16T07:43:21;29.60;;;17.23;;
9072;SDS011;4572;41.642;25.370;2023-01-16T07:45:47;17.37;;;8.90;;
9072;SDS011;4572;41.642;25.370;2023-01-16T07:48:20;18.63;;;10.63;;
9072;SDS011;4572;41.642;25.370;2023-01-16T07:50:50;18.83;;;11.17;;
9072;SDS011;4572;41.642;25.370;2023-01-16T07:53:20;16.83;;;9.33;;
9072;SDS011;4572;41.642;25.370;2023-01-16T07:55:48;16.97;;;9.70;;
9072;SDS011;4572;41.642;25.370;2023-01-16T07:58:14;14.37;;;8.23;;
9072;SDS011;4572;41.642;25.370;2023-01-16T08:00:40;19.27;;;10.70;;
9072;SDS011;4572;41.642;25.370;2023-01-16T08:03:06;20.67;;;11.67;;
9072;SDS011;4572;41.642;25.370;2023-01-16T08:05:31;28.03;;;14.30;;
9072;SDS011;4572;41.642;25.370;2023-01-16T08:07:57;16.93;;;10.67;;
9072;SDS011;4572;41.642;25.370;2023-01-16T08:10:22;20.53;;;10.50;;
9072;SDS011;4572;41.642;25.370;2023-01-16T08:12:48;18.70;;;10.77;;
9072;SDS011;4572;41.642;25.370;2023-01-16T08:15:13;25.47;;;15.93;;
9072;SDS011;4572;41.642;25.370;2023-01-16T08:17:39;17.77;;;10.83;;
9072;SDS011;4572;41.642;25.370;2023-01-16T08:20:06;19.97;;;11.93;;
9072;SDS011;4572;41.642;25.370;2023-01-16T08:22:33;17.27;;;10.13;;
9072;SDS011;4572;41.642;25.370;2023-01-16T08:24:58;15.43;;;10.27;;
9072;SDS011;4572;41.642;25.370;2023-01-16T08:27:24;17.20;;;10.73;;
9072;SDS011;4572;41.642;25.370;2023-01-16T08:29:49;18.90;;;11.17;;
9072;SDS011;4572;41.642;25.370;2023-01-16T08:32:15;15.00;;;9.87;;
9072;SDS011;4572;41.642;25.370;2023-01-16T08:34:41;19.43;;;12.17;;
9072;SDS011;4572;41.642;25.370;2023-01-16T08:37:07;16.30;;;9.10;;
9072;SDS011;4572;41.642;25.370;2023-01-16T08:39:35;13.60;;;7.97;;
9072;SDS011;4572;41.642;25.370;2023-01-16T08:42:01;15.80;;;8.20;;
9072;SDS011;4572;41.642;25.370;2023-01-16T08:44:46;12.83;;;7.80;;
9072;SDS011;4572;41.642;25.370;2023-01-16T08:47:30;12.73;;;6.63;;
9072;SDS011;4572;41.642;25.370;2023-01-16T08:50:17;11.43;;;6.27;;
9072;SDS011;4572;41.642;25.370;2023-01-16T08:53:02;8.20;;;5.47;;
9072;SDS011;4572;41.642;25.370;2023-01-16T08:55:28;10.07;;;5.50;;
9072;SDS011;4572;41.642;25.370;2023-01-16T08:57:54;7.70;;;4.63;;
9072;SDS011;4572;41.642;25.370;2023-01-16T09:00:22;12.67;;;7.93;;
9072;SDS011;4572;41.642;25.370;2023-01-16T09:02:47;14.27;;;7.23;;
9072;SDS011;4572;41.642;25.370;2023-01-16T09:05:13;8.27;;;5.63;;
9072;SDS011;4572;41.642;25.370;2023-01-16T09:07:39;22.20;;;11.53;;
9072;SDS011;4572;41.642;25.370;2023-01-16T09:10:05;10.20;;;6.37;;
9072;SDS011;4572;41.642;25.370;2023-01-16T09:12:31;10.37;;;7.30;;
9072;SDS011;4572;41.642;25.370;2023-01-16T09:15:15;11.33;;;6.70;;
9072;SDS011;4572;41.642;25.370;2023-01-16T09:17:41;13.23;;;6.50;;
9072;SDS011;4572;41.642;25.370;2023-01-16T09:20:07;10.83;;;6.47;;
9072;SDS011;4572;41.642;25.370;2023-01-16T09:22:33;12.40;;;7.00;;
9072;SDS011;4572;41.642;25.370;2023-01-16T09:24:58;21.13;;;12.10;;
9072;SDS011;4572;41.642;25.370;2023-01-16T09:27:24;8.83;;;6.97;;
9072;SDS011;4572;41.642;25.370;2023-01-16T09:29:51;12.47;;;7.43;;
9072;SDS011;4572;41.642;25.370;2023-01-16T09:32:17;11.43;;;7.40;;
9072;SDS011;4572;41.642;25.370;2023-01-16T09:34:43;12.27;;;9.20;;
9072;SDS011;4572;41.642;25.370;2023-01-16T09:37:09;9.93;;;6.93;;
9072;SDS011;4572;41.642;25.370;2023-01-16T09:39:34;14.50;;;8.40;;
9072;SDS011;4572;41.642;25.370;2023-01-16T09:44:50;15.17;;;8.80;;
9072;SDS011;4572;41.642;25.370;2023-01-16T09:47:17;11.57;;;8.03;;
9072;SDS011;4572;41.642;25.370;2023-01-16T09:49:47;11.90;;;7.93;;
9072;SDS011;4572;41.642;25.370;2023-01-16T09:52:19;12.87;;;7.47;;
9072;SDS011;4572;41.642;25.370;2023-01-16T09:55:14;9.23;;;6.83;;
9072;SDS011;4572;41.642;25.370;2023-01-16T09:58:02;12.70;;;7.60;;
9072;SDS011;4572;41.642;25.370;2023-01-16T10:00:47;10.37;;;7.40;;
9072;SDS011;4572;41.642;25.370;2023-01-16T10:03:12;15.00;;;7.53;;
9072;SDS011;4572;41.642;25.370;2023-01-16T10:05:41;12.60;;;7.87;;
9072;SDS011;4572;41.642;25.370;2023-01-16T10:13:45;13.47;;;7.87;;
9072;SDS011;4572;41.642;25.370;2023-01-16T10:16:24;8.50;;;7.07;;
9072;SDS011;4572;41.642;25.370;2023-01-16T10:21:44;10.67;;;6.93;;
9072;SDS011;4572;41.642;25.370;2023-01-16T10:29:53;9.43;;;7.17;;
9072;SDS011;4572;41.642;25.370;2023-01-16T10:32:54;9.73;;;6.53;;
9072;SDS011;4572;41.642;25.370;2023-01-16T10:35:55;9.20;;;6.30;;
9072;SDS011;4572;41.642;25.370;2023-01-16T10:40:46;14.80;;;6.40;;
9072;SDS011;4572;41.642;25.370;2023-01-16T10:43:19;10.77;;;7.83;;
9072;SDS011;4572;41.642;25.370;2023-01-16T10:46:13;6.67;;;5.00;;
9072;SDS011;4572;41.642;25.370;2023-01-16T10:49:00;8.03;;;6.50;;
9072;SDS011;4572;41.642;25.370;2023-01-16T10:51:44;11.10;;;6.40;;
9072;SDS011;4572;41.642;25.370;2023-01-16T10:54:10;6.00;;;5.40;;
9072;SDS011;4572;41.642;25.370;2023-01-16T10:56:36;10.47;;;6.20;;
9072;SDS011;4572;41.642;25.370;2023-01-16T10:59:08;7.70;;;5.70;;
9072;SDS011;4572;41.642;25.370;2023-01-16T11:01:37;8.37;;;5.70;;
9072;SDS011;4572;41.642;25.370;2023-01-16T11:04:04;9.03;;;6.33;;
9072;SDS011;4572;41.642;25.370;2023-01-16T11:06:30;10.93;;;5.80;;
9072;SDS011;4572;41.642;25.370;2023-01-16T11:09:04;7.73;;;5.50;;
9072;SDS011;4572;41.642;25.370;2023-01-16T11:11:41;14.17;;;6.73;;
9072;SDS011;4572;41.642;25.370;2023-01-16T11:14:34;7.23;;;6.10;;
9072;SDS011;4572;41.642;25.370;2023-01-16T11:17:32;7.30;;;5.60;;
9072;SDS011;4572;41.642;25.370;2023-01-16T11:22:54;10.00;;;5.60;;
9072;SDS011;4572;41.642;25.370;2023-01-16T11:25:22;8.30;;;5.80;;
9072;SDS011;4572;41.642;25.370;2023-01-16T11:27:48;9.83;;;5.07;;
9072;SDS011;4572;41.642;25.370;2023-01-16T11:30:19;12.23;;;7.57;;
9072;SDS011;4572;41.642;25.370;2023-01-16T11:32:47;14.30;;;7.27;;
9072;SDS011;4572;41.642;25.370;2023-01-16T11:35:14;5.83;;;5.20;;
9072;SDS011;4572;41.642;25.370;2023-01-16T11:37:42;13.70;;;5.63;;
9072;SDS011;4572;41.642;25.370;2023-01-16T11:40:14;14.23;;;6.83;;
9072;SDS011;4572;41.642;25.370;2023-01-16T11:42:52;7.33;;;5.83;;
9072;SDS011;4572;41.642;25.370;2023-01-16T11:45:44;6.43;;;5.10;;
9072;SDS011;4572;41.642;25.370;2023-01-16T11:48:33;9.87;;;6.13;;
9072;SDS011;4572;41.642;25.370;2023-01-16T11:51:03;6.73;;;5.53;;
9072;SDS011;4572;41.642;25.370;2023-01-16T11:53:31;12.47;;;6.17;;
9072;SDS011;4572;41.642;25.370;2023-01-16T11:56:05;14.43;;;6.33;;
9072;SDS011;4572;41.642;25.370;2023-01-16T12:04:34;10.27;;;6.37;;
9072;SDS011;4572;41.642;25.370;2023-01-16T12:07:09;9.57;;;6.83;;
9072;SDS011;4572;41.642;25.370;2023-01-16T12:12:49;13.47;;;4.90;;
9072;SDS011;4572;41.642;25.370;2023-01-16T12:15:43;7.60;;;5.67;;
9072;SDS011;4572;41.642;25.370;2023-01-16T12:21:24;13.40;;;8.93;;
9072;SDS011;4572;41.642;25.370;2023-01-16T12:30:00;8.10;;;5.57;;
9072;SDS011;4572;41.642;25.370;2023-01-16T12:44:02;15.00;;;7.13;;
9072;SDS011;4572;41.642;25.370;2023-01-16T12:49:32;8.10;;;5.97;;
9072;SDS011;4572;41.642;25.370;2023-01-16T12:52:19;12.67;;;6.23;;
9072;SDS011;4572;41.642;25.370;2023-01-16T12:57:30;11.13;;;7.13;;
9072;SDS011;4572;41.642;25.370;2023-01-16T13:00:10;12.83;;;6.37;;
9072;SDS011;4572;41.642;25.370;2023-01-16T13:05:13;10.07;;;5.73;;
9072;SDS011;4572;41.642;25.370;2023-01-16T13:08:03;7.10;;;5.13;;
9072;SDS011;4572;41.642;25.370;2023-01-16T13:10:38;6.93;;;4.37;;
9072;SDS011;4572;41.642;25.370;2023-01-16T13:13:25;14.73;;;8.00;;
9072;SDS011;4572;41.642;25.370;2023-01-16T13:16:13;15.73;;;5.13;;
9072;SDS011;4572;41.642;25.370;2023-01-16T13:18:42;14.93;;;6.17;;
9072;SDS011;4572;41.642;25.370;2023-01-16T13:21:16;11.23;;;6.37;;
9072;SDS011;4572;41.642;25.370;2023-01-16T13:26:35;6.10;;;5.50;;
9072;SDS011;4572;41.642;25.370;2023-01-16T13:31:38;6.47;;;5.33;;
9072;SDS011;4572;41.642;25.370;2023-01-16T13:42:50;7.80;;;6.47;;
9072;SDS011;4572;41.642;25.370;2023-01-16T13:45:21;7.70;;;6.17;;
9072;SDS011;4572;41.642;25.370;2023-01-16T13:48:12;8.77;;;5.93;;
9072;SDS011;4572;41.642;25.370;2023-01-16T13:50:42;6.73;;;5.50;;
9072;SDS011;4572;41.642;25.370;2023-01-16T13:53:11;7.73;;;5.50;;
9072;SDS011;4572;41.642;25.370;2023-01-16T13:55:38;10.93;;;5.70;;
9072;SDS011;4572;41.642;25.370;2023-01-16T13:58:24;12.07;;;6.83;;
9072;SDS011;4572;41.642;25.370;2023-01-16T14:00:58;21.80;;;11.00;;
9072;SDS011;4572;41.642;25.370;2023-01-16T14:03:26;14.23;;;9.77;;
9072;SDS011;4572;41.642;25.370;2023-01-16T14:08:47;13.00;;;6.07;;
9072;SDS011;4572;41.642;25.370;2023-01-16T14:17:29;13.37;;;6.07;;
9072;SDS011;4572;41.642;25.370;2023-01-16T14:23:18;9.37;;;5.50;;
9072;SDS011;4572;41.642;25.370;2023-01-16T14:26:05;12.60;;;8.23;;
9072;SDS011;4572;41.642;25.370;2023-01-16T14:28:32;10.33;;;6.87;;
9072;SDS011;4572;41.642;25.370;2023-01-16T14:30:58;5.13;;;4.50;;
9072;SDS011;4572;41.642;25.370;2023-01-16T14:33:24;8.13;;;4.93;;
9072;SDS011;4572;41.642;25.370;2023-01-16T14:35:51;8.00;;;5.53;;
9072;SDS011;4572;41.642;25.370;2023-01-16T14:38:20;8.57;;;5.57;;
9072;SDS011;4572;41.642;25.370;2023-01-16T14:40:58;13.67;;;5.07;;
9072;SDS011;4572;41.642;25.370;2023-01-16T14:47:04;7.17;;;5.23;;
9072;SDS011;4572;41.642;25.370;2023-01-16T14:50:07;11.03;;;5.60;;
9072;SDS011;4572;41.642;25.370;2023-01-16T14:55:57;12.27;;;7.37;;
9072;SDS011;4572;41.642;25.370;2023-01-16T14:58:34;12.07;;;6.77;;
9072;SDS011;4572;41.642;25.370;2023-01-16T15:01:31;14.23;;;9.30;;
9072;SDS011;4572;41.642;25.370;2023-01-16T15:04:17;7.73;;;6.80;;
9072;SDS011;4572;41.642;25.370;2023-01-16T15:06:47;12.20;;;6.77;;
9072;SDS011;4572;41.642;25.370;2023-01-16T15:09:16;12.23;;;6.93;;
9072;SDS011;4572;41.642;25.370;2023-01-16T15:11:55;10.30;;;6.80;;
9072;SDS011;4572;41.642;25.370;2023-01-16T15:14:23;13.90;;;7.10;;
9072;SDS011;4572;41.642;25.370;2023-01-16T15:19:54;11.23;;;7.67;;
9072;SDS011;4572;41.642;25.370;2023-01-16T15:22:40;16.17;;;8.17;;
9072;SDS011;4572;41.642;25.370;2023-01-16T15:25:11;9.87;;;7.80;;
9072;SDS011;4572;41.642;25.370;2023-01-16T15:27:40;13.70;;;7.77;;
9072;SDS011;4572;41.642;25.370;2023-01-16T15:30:09;12.57;;;8.30;;
9072;SDS011;4572;41.642;25.370;2023-01-16T15:32:55;11.20;;;7.70;;
9072;SDS011;4572;41.642;25.370;2023-01-16T15:35:41;13.23;;;7.77;;
9072;SDS011;4572;41.642;25.370;2023-01-16T15:38:08;14.43;;;8.57;;
9072;SDS011;4572;41.642;25.370;2023-01-16T15:40:34;19.97;;;13.10;;
9072;SDS011;4572;41.642;25.370;2023-01-16T15:43:00;9.63;;;7.43;;
9072;SDS011;4572;41.642;25.370;2023-01-16T15:45:47;18.53;;;8.50;;
9072;SDS011;4572;41.642;25.370;2023-01-16T15:51:13;14.70;;;9.27;;
9072;SDS011;4572;41.642;25.370;2023-01-16T15:53:41;14.43;;;10.47;;
9072;SDS011;4572;41.642;25.370;2023-01-16T15:56:17;21.20;;;14.93;;
9072;SDS011;4572;41.642;25.370;2023-01-16T15:58:44;20.10;;;16.20;;
9072;SDS011;4572;41.642;25.370;2023-01-16T16:01:13;20.30;;;14.07;;
9072;SDS011;4572;41.642;25.370;2023-01-16T16:03:43;16.73;;;12.67;;
9072;SDS011;4572;41.642;25.370;2023-01-16T16:06:11;18.40;;;13.70;;
9072;SDS011;4572;41.642;25.370;2023-01-16T16:08:42;16.70;;;10.27;;
9072;SDS011;4572;41.642;25.370;2023-01-16T16:11:10;21.40;;;11.23;;
9072;SDS011;4572;41.642;25.370;2023-01-16T16:14:00;18.10;;;10.30;;
9072;SDS011;4572;41.642;25.370;2023-01-16T16:16:26;15.67;;;9.93;;
9072;SDS011;4572;41.642;25.370;2023-01-16T16:19:28;10.43;;;8.53;;
9072;SDS011;4572;41.642;25.370;2023-01-16T16:21:56;16.87;;;9.63;;
9072;SDS011;4572;41.642;25.370;2023-01-16T16:24:41;12.83;;;9.87;;
9072;SDS011;4572;41.642;25.370;2023-01-16T16:27:06;11.77;;;8.83;;
9072;SDS011;4572;41.642;25.370;2023-01-16T16:29:35;12.30;;;8.13;;
9072;SDS011;4572;41.642;25.370;2023-01-16T16:32:01;10.07;;;7.80;;
9072;SDS011;4572;41.642;25.370;2023-01-16T16:34:30;12.23;;;8.20;;
9072;SDS011;4572;41.642;25.370;2023-01-16T16:36:58;11.53;;;8.80;;
9072;SDS011;4572;41.642;25.370;2023-01-16T16:41:59;11.83;;;8.33;;
9072;SDS011;4572;41.642;25.370;2023-01-16T16:44:44;13.00;;;8.37;;
9072;SDS011;4572;41.642;25.370;2023-01-16T16:47:28;10.77;;;7.50;;
9072;SDS011;4572;41.642;25.370;2023-01-16T16:49:55;11.20;;;7.17;;
9072;SDS011;4572;41.642;25.370;2023-01-16T16:52:21;11.37;;;8.10;;
9072;SDS011;4572;41.642;25.370;2023-01-16T16:54:55;17.07;;;9.90;;
9072;SDS011;4572;41.642;25.370;2023-01-16T16:57:22;15.90;;;8.67;;
9072;SDS011;4572;41.642;25.370;2023-01-16T16:59:50;10.93;;;8.33;;
9072;SDS011;4572;41.642;25.370;2023-01-16T17:02:16;16.77;;;10.97;;
9072;SDS011;4572;41.642;25.370;2023-01-16T17:04:42;11.40;;;8.70;;
9072;SDS011;4572;41.642;25.370;2023-01-16T17:07:07;11.53;;;8.00;;
9072;SDS011;4572;41.642;25.370;2023-01-16T17:09:33;11.10;;;8.13;;
9072;SDS011;4572;41.642;25.370;2023-01-16T17:12:08;10.87;;;8.07;;
9072;SDS011;4572;41.642;25.370;2023-01-16T17:14:38;11.77;;;9.00;;
9072;SDS011;4572;41.642;25.370;2023-01-16T17:17:04;11.47;;;9.23;;
9072;SDS011;4572;41.642;25.370;2023-01-16T17:19:30;11.33;;;8.90;;
9072;SDS011;4572;41.642;25.370;2023-01-16T17:21:56;12.53;;;7.87;;
9072;SDS011;4572;41.642;25.370;2023-01-16T17:24:23;11.87;;;8.27;;
9072;SDS011;4572;41.642;25.370;2023-01-16T17:26:48;12.53;;;8.33;;
9072;SDS011;4572;41.642;25.370;2023-01-16T17:29:14;12.93;;;8.37;;
9072;SDS011;4572;41.642;25.370;2023-01-16T17:31:42;12.37;;;7.67;;
9072;SDS011;4572;41.642;25.370;2023-01-16T17:34:11;10.73;;;7.80;;
9072;SDS011;4572;41.642;25.370;2023-01-16T17:36:39;12.30;;;7.70;;
9072;SDS011;4572;41.642;25.370;2023-01-16T17:39:04;15.70;;;8.93;;